Hestrud (Nord, France) - 208 m
Donnes mto: Actuelle mercredi, 23/08/2017 09:58
Date Horaire Temp Out Temp. E. min Temp. E. max Temp. Sol 1 Hum Out Hum. Sol 1 Press Rain Wind Dir Dir Solar Ev.Tr. UV Hi Solar Rad Dew Point Windchill Wind (Gust)
23/08/2017 09:58 21,2 C 21,2 C 21,2 C 21,7 C 70 % 89 cb 1013,7 hPa 0,0 mm 9,7 km/h (2 Bft) SE 135 60 min 0,051 mm 1,9 UV-I 412 W/m 15,5 C 20,1 C 14,5 km/h (3 Bft)
23/08/2017 08:58 17,8 C 17,8 C 17,8 C 17,2 C 78 % 82 cb 1013,9 hPa 0,0 mm 6,4 km/h (2 Bft) SE 135 0 min 0,025 mm 0,8 UV-I 90 W/m 13,9 C 17,8 C 16,1 km/h (3 Bft)
23/08/2017 07:58 15,8 C 15,8 C 15,8 C 15,0 C 84 % 78 cb 1014,2 hPa 0,0 mm 4,8 km/h (1 Bft) E-NE 67 0 min 0,000 mm 0,0 UV-I 33 W/m 13,1 C 15,8 C 9,7 km/h (2 Bft)
23/08/2017 06:58 15,6 C 15,6 C 15,6 C 15,0 C 85 % 77 cb 1014,1 hPa 0,0 mm 8,0 km/h (2 Bft) SE 135 0 min 0,000 mm 0,0 UV-I 12 W/m 13,1 C 14,7 C 11,3 km/h (2 Bft)
23/08/2017 05:58 15,7 C 15,7 C 15,7 C 15,0 C 86 % 76 cb 1014,3 hPa 0,0 mm 0,0 km/h (0 Bft) N 0 0 min 0,000 mm 0,0 UV-I 0 W/m 13,4 C 15,7 C 0,0 km/h (0 Bft)
23/08/2017 04:58 14,7 C 14,7 C 14,7 C 14,4 C 94 % 74 cb 1014,5 hPa 0,0 mm 0,0 km/h (0 Bft) E-SE 112 0 min 0,000 mm 0,0 UV-I 0 W/m 13,7 C 14,7 C 1,6 km/h (1 Bft)
23/08/2017 03:58 14,2 C 14,1 C 14,2 C 13,3 C 94 % 71 cb 1015,0 hPa 0,0 mm 0,0 km/h (0 Bft) N 0 0 min 0,000 mm 0,0 UV-I 0 W/m 13,2 C 14,2 C 0,0 km/h (0 Bft)
23/08/2017 02:58 15,2 C 15,2 C 15,2 C 14,4 C 92 % 70 cb 1015,2 hPa 0,0 mm 0,0 km/h (0 Bft) N 0 0 min 0,000 mm 0,0 UV-I 0 W/m 13,9 C 15,2 C 0,0 km/h (0 Bft)
23/08/2017 01:58 16,5 C 16,5 C 16,6 C 16,1 C 91 % 70 cb 1015,3 hPa 0,0 mm 0,0 km/h (0 Bft) N 0 0 min 0,000 mm 0,0 UV-I 0 W/m 15,0 C 16,5 C 0,0 km/h (0 Bft)
23/08/2017 00:58 17,6 C 17,6 C 17,6 C 17,2 C 91 % 70 cb 1015,7 hPa 0,0 mm 0,0 km/h (0 Bft) N 0 0 min 0,000 mm 0,0 UV-I 0 W/m 16,1 C 17,6 C 0,0 km/h (0 Bft)
22/08/2017 23:58 17,6 C 17,6 C 17,6 C 17,8 C 90 % 69 cb 1015,6 hPa 0,0 mm 0,0 km/h (0 Bft) N 0 0 min 0,000 mm 0,0 UV-I 0 W/m 15,9 C 17,6 C 0,0 km/h (0 Bft)
22/08/2017 22:58 18,2 C 18,2 C 18,2 C 18,3 C 88 % 68 cb 1016,3 hPa 0,0 mm 0,0 km/h (0 Bft) N 0 0 min 0,025 mm 0,0 UV-I 0 W/m 16,2 C 18,2 C 0,0 km/h (0 Bft)
22/08/2017 21:58 19,0 C 19,0 C 19,0 C 18,3 C 84 % 66 cb 1016,4 hPa 0,0 mm 0,0 km/h (0 Bft) N 0 0 min 0,025 mm 0,0 UV-I 0 W/m 16,2 C 19,0 C 0,0 km/h (0 Bft)
22/08/2017 20:58 20,6 C 20,6 C 20,7 C 20,0 C 78 % 66 cb 1016,7 hPa 0,0 mm 0,0 km/h (0 Bft) N 0 0 min 0,051 mm 0,0 UV-I 0 W/m 16,6 C 20,6 C 0,0 km/h (0 Bft)
22/08/2017 19:58 22,0 C 22,0 C 22,0 C 21,1 C 72 % 65 cb 1016,1 hPa 0,0 mm 1,6 km/h (1 Bft) E-NE 67 0 min 0,127 mm 0,0 UV-I 28 W/m 16,7 C 22,0 C 3,2 km/h (1 Bft)
22/08/2017 18:58 23,8 C 23,8 C 23,8 C 22,2 C 64 % 64 cb 1016,5 hPa 0,0 mm 3,2 km/h (1 Bft) E 90 30 min 0,305 mm 0,5 UV-I 76 W/m 16,6 C 23,8 C 4,8 km/h (1 Bft)
22/08/2017 17:58 24,7 C 24,7 C 24,7 C 23,9 C 61 % 63 cb 1017,2 hPa 0,0 mm 8,0 km/h (2 Bft) N-NE 22 60 min 0,178 mm 1,3 UV-I 248 W/m 16,7 C 24,3 C 9,7 km/h (2 Bft)
22/08/2017 16:57 23,4 C 23,4 C 23,4 C 23,3 C 68 % 61 cb 1017,7 hPa 0,0 mm 0,0 km/h (0 Bft) E-NE 67 60 min 0,356 mm 2,4 UV-I 408 W/m 17,1 C 23,4 C 3,2 km/h (1 Bft)
22/08/2017 15:57 23,7 C 23,7 C 23,7 C 24,4 C 66 % 61 cb 1018,3 hPa 0,0 mm 3,2 km/h (1 Bft) N-NE 22 60 min 0,381 mm 2,3 UV-I 209 W/m 17,0 C 23,7 C 4,8 km/h (1 Bft)
22/08/2017 14:57 24,3 C 24,3 C 24,3 C 25,6 C 68 % 62 cb 1018,9 hPa 0,0 mm 8,0 km/h (2 Bft) O-SO 247 60 min 0,279 mm 5,8 UV-I 911 W/m 18,0 C 23,9 C 12,9 km/h (3 Bft)
22/08/2017 13:57 22,4 C 22,4 C 22,4 C 22,8 C 73 % 59 cb 1019,3 hPa 0,0 mm 1,6 km/h (1 Bft) E 90 60 min 0,203 mm 3,6 UV-I 378 W/m 17,3 C 22,4 C 3,2 km/h (1 Bft)
22/08/2017 12:57 21,3 C 21,3 C 21,3 C 21,7 C 75 % 58 cb 1019,5 hPa 0,0 mm 3,2 km/h (1 Bft) NE 45 60 min 0,229 mm 3,2 UV-I 438 W/m 16,7 C 21,3 C 3,2 km/h (1 Bft)
22/08/2017 11:57 20,6 C 20,6 C 20,6 C 21,7 C 78 % 59 cb 1019,9 hPa 0,0 mm 4,8 km/h (1 Bft) N-NE 22 60 min 0,178 mm 3,2 UV-I 387 W/m 16,6 C 20,6 C 8,0 km/h (2 Bft)
22/08/2017 10:57 19,6 C 19,6 C 19,6 C 20,0 C 80 % 59 cb 1020,0 hPa 0,0 mm 3,2 km/h (1 Bft) SE 135 57 min 0,102 mm 2,0 UV-I 287 W/m 16,1 C 19,6 C 3,2 km/h (1 Bft)
22/08/2017 10:00 18,1 C 18,1 C 18,1 C 18,3 C 82 % 58 cb 1019,9 hPa 0,0 mm 0,0 km/h (0 Bft) N 0 0 min 0,102 mm 1,6 UV-I 267 W/m 15,0 C 18,1 C 0,0 km/h (0 Bft)
_ Min-Heure 03:58 03:58 04:00 03:53 17:46 12:26 09:23 - 10:00 - - - - - - 07:35 07:04 10:00
Minimum _ 14,1 C 14,1 C 14,1 C 13,3 C 59 % 57 cb 1013,5 hPa - 0,0 km/h (0 Bft) - - - - - - 13,0 C 13,9 C 0,0 km/h (0 Bft)
_ Max-Heure 15:22 15:18 15:22 15:09 04:29 09:53 10:24 10:00 09:08 - - 17:30 15:00 14:01 14:03 15:10 15:21 08:44
Maximum _ 25,5 C 25,4 C 25,5 C 26,7 C 96 % 89 cb 1020,1 hPa 0,0 mm 12,9 km/h
SE (3 Bft)
- - 2 min 0,381 mm 6,6 UV-I 990 W/m 19,0 C 25,4 C 17,7 km/h
SE (3 Bft)
Moyenne _ 19,2 C 19,2 C 19,3 C 19,1 C 80 % 67 cb 1016,8 hPa #0,0 mm 2,1 km/h (1 Bft) SE - #1:00 h #0,076 mm 1,3 UV-I 40 W/m 15,5 C 19,2 C 3,6 km/h (1 Bft)